createdAt,value
2019-04-27T00:02:55.865Z,97564.67
2019-04-27T00:07:59.468Z,97573.73
2019-04-27T00:13:05.801Z,97563.97
2019-04-27T00:18:29.701Z,97556.64
2019-04-27T00:23:33.973Z,97555.20
2019-04-27T00:28:37.537Z,97556.11
2019-04-27T00:33:40.989Z,97543.84
2019-04-27T00:38:46.025Z,97552.28
2019-04-27T00:43:49.409Z,97543.39
2019-04-27T00:48:53.435Z,97543.61
2019-04-27T00:53:56.950Z,97540.33
2019-04-27T00:59:03.515Z,97539.23
2019-04-27T01:04:08.608Z,97524.72
2019-04-27T01:09:14.128Z,97524.02
2019-04-27T01:14:17.490Z,97522.64
2019-04-27T01:19:20.952Z,97506.08
2019-04-27T01:24:24.366Z,97508.68
2019-04-27T01:29:29.786Z,97504.17
2019-04-27T01:34:33.666Z,97522.42
2019-04-27T01:39:38.619Z,97525.56
2019-04-27T01:44:42.563Z,97528.25
2019-04-27T01:49:45.912Z,97521.36
2019-04-27T01:54:49.645Z,97528.84
2019-04-27T01:59:52.941Z,97531.31
2019-04-27T02:04:59.391Z,97534.83
2019-04-27T02:10:03.726Z,97528.48
2019-04-27T02:15:08.856Z,97530.31
2019-04-27T02:20:13.457Z,97535.70
2019-04-27T02:25:17.045Z,97527.78
2019-04-27T02:30:24.936Z,97527.55
2019-04-27T02:35:30.014Z,97521.56
2019-04-27T02:40:49.553Z,97522.80
2019-04-27T02:45:53.187Z,97516.69
2019-04-27T02:50:59.880Z,97515.45
2019-04-27T02:56:03.353Z,97515.52
2019-04-27T03:01:06.935Z,97506.08
2019-04-27T03:06:10.367Z,97499.80
2019-04-27T03:11:14.754Z,97497.27
2019-04-27T03:16:29.644Z,97505.31
2019-04-27T03:21:50.919Z,97511.53
2019-04-27T03:27:00.533Z,97508.33
2019-04-27T03:32:03.689Z,97517.75
2019-04-27T03:37:10.126Z,97509.63
2019-04-27T03:42:12.683Z,97509.85
2019-04-27T03:47:16.151Z,97513.06
2019-04-27T03:52:26.613Z,97515.61
2019-04-27T03:57:34.175Z,97521.56
2019-04-27T04:02:40.089Z,97518.64
2019-04-27T04:07:42.765Z,97525.87
2019-04-27T04:12:50.590Z,97524.80
2019-04-27T04:17:54.041Z,97525.16
2019-04-27T04:23:00.156Z,97527.77
2019-04-27T04:28:02.473Z,97533.38
2019-04-27T04:33:05.825Z,97539.66
2019-04-27T04:38:10.470Z,97540.95
2019-04-27T04:43:32.074Z,97535.98
2019-04-27T04:48:35.452Z,97528.62
2019-04-27T04:53:40.588Z,97534.97
2019-04-27T04:58:44.081Z,97536.88
2019-04-27T05:03:48.834Z,97535.80
2019-04-27T05:08:52.227Z,97539.81
2019-04-27T05:13:55.621Z,97542.42
2019-04-27T05:18:59.429Z,97548.59
2019-04-27T05:24:04.476Z,97539.17
2019-04-27T05:29:09.163Z,97537.83
2019-04-27T05:34:12.558Z,97538.35
2019-04-27T05:39:18.179Z,97533.41
2019-04-27T05:44:31.204Z,97539.92
2019-04-27T05:49:40.109Z,97540.76
2019-04-27T05:54:41.264Z,97545.78
2019-04-27T05:59:44.809Z,97550.42
2019-04-27T06:04:49.677Z,97542.44
2019-04-27T06:09:53.092Z,97540.09
2019-04-27T06:14:56.460Z,97546.98
2019-04-27T06:19:59.884Z,97547.91
2019-04-27T06:25:03.705Z,97549.12
2019-04-27T06:30:09.318Z,97548.05
2019-04-27T06:35:12.856Z,97546.87
2019-04-27T06:40:16.368Z,97551.29
2019-04-27T06:45:19.869Z,97549.09
2019-04-27T06:50:23.412Z,97551.14
2019-04-27T06:55:26.867Z,97549.98
2019-04-27T07:00:30.221Z,97545.83
2019-04-27T07:05:33.715Z,97558.46
2019-04-27T07:10:39.035Z,97553.63
2019-04-27T07:15:42.196Z,97552.34
2019-04-27T07:20:45.544Z,97549.84
2019-04-27T07:25:48.902Z,97549.01
2019-04-27T07:30:52.329Z,97554.24
2019-04-27T07:35:55.671Z,97551.94
2019-04-27T07:40:59.050Z,97551.03
2019-04-27T07:46:02.395Z,97555.69
2019-04-27T07:51:05.768Z,97550.80
2019-04-27T07:56:10.747Z,97544.81
2019-04-27T08:01:14.277Z,97547.89
2019-04-27T08:06:18.981Z,97549.56
2019-04-27T08:11:22.525Z,97555.47
2019-04-27T08:16:25.847Z,97553.41
2019-04-27T08:21:29.228Z,97547.98
2019-04-27T08:26:34.241Z,97554.00
2019-04-27T08:31:41.988Z,97553.51
2019-04-27T08:36:45.361Z,97550.20
2019-04-27T08:41:49.460Z,97549.25
2019-04-27T08:46:53.079Z,97545.33
2019-04-27T08:51:59.911Z,97545.84
2019-04-27T08:57:01.843Z,97544.26
2019-04-27T09:02:05.263Z,97540.88
2019-04-27T09:07:29.468Z,97539.22
2019-04-27T09:12:53.887Z,97538.26
2019-04-27T09:17:58.884Z,97530.38
2019-04-27T09:23:02.365Z,97512.67
2019-04-27T09:28:05.782Z,97515.47
2019-04-27T09:33:09.307Z,97516.87
2019-04-27T09:38:12.687Z,97513.88
2019-04-27T09:43:16.073Z,97508.84
2019-04-27T09:48:19.479Z,97504.42
2019-04-27T09:53:22.900Z,97515.00
2019-04-27T09:58:26.376Z,97510.70
2019-04-27T10:03:29.814Z,97501.53
2019-04-27T10:08:33.201Z,97500.80
2019-04-27T10:13:36.587Z,97496.39
2019-04-27T10:18:39.900Z,97495.55
2019-04-27T10:23:43.334Z,97494.80
2019-04-27T10:28:46.667Z,97485.36
2019-04-27T10:33:50.021Z,97491.98
2019-04-27T10:38:53.393Z,97484.78
2019-04-27T10:43:56.777Z,97474.86
2019-04-27T10:49:00.241Z,97475.77
2019-04-27T10:54:05.164Z,97468.80
2019-04-27T10:59:09.840Z,97465.12
2019-04-27T11:04:15.933Z,97458.36
2019-04-27T11:09:19.549Z,97453.24
2019-04-27T11:14:22.926Z,97446.38
2019-04-27T11:19:26.801Z,97440.63
2019-04-27T11:24:30.549Z,97429.06
2019-04-27T11:29:33.964Z,97415.80
2019-04-27T11:34:55.842Z,97414.41
2019-04-27T11:39:59.307Z,97393.39
2019-04-27T11:45:03.011Z,97389.17
2019-04-27T11:50:08.421Z,97385.34
2019-04-27T11:55:12.825Z,97374.45
2019-04-27T12:00:19.952Z,97358.95
2019-04-27T12:05:23.409Z,97353.31
2019-04-27T12:10:26.877Z,97344.38
2019-04-27T12:15:30.285Z,97345.66
2019-04-27T12:20:35.767Z,97335.74
2019-04-27T12:25:39.001Z,97337.16
2019-04-27T12:30:59.870Z,97330.98
2019-04-27T12:36:03.662Z,97332.48
2019-04-27T12:41:08.126Z,97346.59
2019-04-27T12:46:11.608Z,97367.74
2019-04-27T12:51:15.018Z,97445.94
2019-04-27T12:56:22.795Z,97445.91
2019-04-27T13:01:28.858Z,97447.98
2019-04-27T13:06:32.269Z,97427.84
2019-04-27T13:11:36.635Z,97404.92
2019-04-27T13:16:40.275Z,97397.37
2019-04-27T13:21:43.905Z,97388.78
2019-04-27T13:26:47.306Z,97383.49
2019-04-27T13:31:50.733Z,97366.52
2019-04-27T13:36:56.161Z,97339.49
2019-04-27T13:42:00.514Z,97331.95
2019-04-27T13:47:17.640Z,97320.47
2019-04-27T13:52:22.640Z,97309.61
2019-04-27T13:57:26.529Z,97306.83
2019-04-27T14:02:32.567Z,97291.33
2019-04-27T14:07:35.358Z,97287.40
2019-04-27T14:12:38.805Z,97276.14
2019-04-27T14:17:42.289Z,97278.33
2019-04-27T14:22:45.694Z,97279.45
2019-04-27T14:27:49.156Z,97280.42
2019-04-27T14:32:52.672Z,97264.55
2019-04-27T14:37:56.054Z,97268.12
2019-04-27T14:42:59.582Z,97260.84
2019-04-27T14:48:03.086Z,97254.14
2019-04-27T14:53:06.507Z,97244.88
2019-04-27T14:58:09.866Z,97246.38
2019-04-27T15:03:13.227Z,97278.20
2019-04-27T15:08:16.600Z,97305.39
2019-04-27T15:13:20.080Z,97323.06
2019-04-27T15:18:25.103Z,97313.84
2019-04-27T15:23:30.842Z,97304.59
2019-04-27T15:28:35.622Z,97303.19
2019-04-27T15:33:58.991Z,97301.76
2019-04-27T15:39:10.717Z,97307.81
2019-04-27T15:44:14.888Z,97299.44
2019-04-27T15:49:18.328Z,97296.61
2019-04-27T15:54:22.424Z,97300.08
2019-04-27T15:59:37.022Z,97289.17
2019-04-27T16:04:38.197Z,97289.17
2019-04-27T16:09:41.149Z,97297.08
2019-04-27T16:14:44.560Z,97295.34
2019-04-27T16:19:50.251Z,97298.04
2019-04-27T16:24:53.672Z,97300.92
2019-04-27T16:30:00.369Z,97304.52
2019-04-27T16:35:04.028Z,97304.08
2019-04-27T16:40:08.441Z,97309.65
2019-04-27T16:45:13.593Z,97303.87
2019-04-27T16:50:19.706Z,97302.56
2019-04-27T16:55:22.389Z,97299.27
2019-04-27T17:00:26.510Z,97297.77
2019-04-27T17:05:34.311Z,97293.86
2019-04-27T17:10:35.531Z,97292.78
2019-04-27T17:15:53.595Z,97294.30
2019-04-27T17:21:02.661Z,97292.06
2019-04-27T17:26:13.969Z,97288.75
2019-04-27T17:31:12.849Z,97268.30
2019-04-27T17:36:16.384Z,97270.11
2019-04-27T17:41:19.240Z,97278.33
2019-04-27T17:46:22.679Z,97278.77
2019-04-27T17:51:26.126Z,97270.25
2019-04-27T17:56:35.990Z,97256.17
2019-04-27T18:01:34.766Z,97276.05
2019-04-27T18:06:39.004Z,97293.69
2019-04-27T18:11:42.587Z,97310.67
2019-04-27T18:16:45.952Z,97311.25
2019-04-27T18:21:57.467Z,97315.34
2019-04-27T18:27:04.499Z,97344.94
2019-04-27T18:32:08.897Z,97445.38
2019-04-27T18:37:14.414Z,97458.62
2019-04-27T18:42:18.198Z,97468.51
2019-04-27T18:47:21.988Z,97465.05
2019-04-27T18:52:47.269Z,97491.87
2019-04-27T18:58:14.267Z,97494.78
2019-04-27T19:03:18.365Z,97487.27
2019-04-27T19:08:23.805Z,97484.73
2019-04-27T19:13:31.873Z,97480.48
2019-04-27T19:18:37.788Z,97468.82
2019-04-27T19:23:41.779Z,97470.05
2019-04-27T19:29:05.160Z,97458.62
2019-04-27T19:34:08.838Z,97463.73
2019-04-27T19:39:14.044Z,97465.50
2019-04-27T19:44:18.826Z,97500.47
2019-04-27T19:49:22.467Z,97515.00
2019-04-27T19:54:29.940Z,97524.17
2019-04-27T19:59:35.236Z,97546.30
2019-04-27T20:04:39.493Z,97537.20
2019-04-27T20:09:53.368Z,97541.38
2019-04-27T20:14:56.849Z,97569.06
2019-04-27T20:20:00.861Z,97578.55
2019-04-27T20:25:06.108Z,97570.36
2019-04-27T20:30:11.640Z,97574.27
2019-04-27T20:35:15.407Z,97581.77
2019-04-27T20:40:18.973Z,97576.53
2019-04-27T20:45:22.426Z,97576.16
2019-04-27T20:50:25.842Z,97583.30
2019-04-27T20:55:29.752Z,97583.52
2019-04-27T21:00:33.386Z,97594.41
2019-04-27T21:05:41.235Z,97597.98
2019-04-27T21:10:44.619Z,97602.38
2019-04-27T21:15:48.084Z,97601.33
2019-04-27T21:20:51.474Z,97610.22
2019-04-27T21:25:54.904Z,97616.20
2019-04-27T21:30:58.390Z,97622.46
2019-04-27T21:36:01.754Z,97616.10
2019-04-27T21:41:05.141Z,97613.15
2019-04-27T21:46:08.493Z,97611.62
2019-04-27T21:51:11.994Z,97609.20
2019-04-27T21:56:15.397Z,97583.98
2019-04-27T22:01:26.918Z,97574.45
2019-04-27T22:06:30.295Z,97591.04
2019-04-27T22:11:33.676Z,97600.03
2019-04-27T22:16:37.020Z,97610.51
2019-04-27T22:21:41.944Z,97616.41
2019-04-27T22:26:45.484Z,97623.81
2019-04-27T22:31:48.921Z,97621.10
2019-04-27T22:36:52.256Z,97629.92
2019-04-27T22:42:01.714Z,97632.72
2019-04-27T22:47:05.265Z,97642.99
2019-04-27T22:52:08.637Z,97642.16
2019-04-27T22:57:13.629Z,97640.81
2019-04-27T23:02:29.337Z,97653.86
2019-04-27T23:07:32.821Z,97655.87
2019-04-27T23:12:36.182Z,97662.50
2019-04-27T23:17:51.698Z,97664.68
2019-04-27T23:22:55.138Z,97677.79
2019-04-27T23:27:58.482Z,97679.22
2019-04-27T23:33:01.894Z,97685.48
2019-04-27T23:38:15.587Z,97692.45
2019-04-27T23:43:11.499Z,97699.36
2019-04-27T23:48:14.905Z,97693.19
2019-04-27T23:53:21.730Z,97698.55
2019-04-27T23:58:25.005Z,97700.56
